aviador You're here:

VOCB Decoded Metar

COIMBATORE in INDIA
Report Time2017-09-20 16:00:00
UTC Time2017-09-20 16:15:07
Flight Rules mvfr MVFR
Wind210° at 12 kt
W.Decomp.*RWY 23: 11.4 kt HW 3.7 kt LCW
W.Rank210° ranks 7
Current wind is above 210° avg. (7.1)
Visibility6000 m
Phenomena:N/A
Clouds:Few 015 Hf
Expected CloudBase > 800 ft AGL from Temp-Dew spread
CeilingNone
Temp24°C (ISA +12)
Dew Point22°C (89% RH)
QNH1011 hPa
Density Alt3,074 ft
Elevation1,309 ft
Report Wrong Elevation
Raw Report
METAR VOCB 201600Z 21012KT 6000 FEW015 24/22 Q1011 NOSIG=

Extra information for VOCB:More info

Metar Taf Metar & Taf Last 4 Metars F.Rules Stats Wind Profile Meteogram Temp Stats Airport Information Weather charts Add Link Nearby VenuesMetar ALERT Operation Metar Decoded Social comments